Time;durP1;ratioP1;P1;durP2;ratioP2;P2;SDS_P1;SDS_P2;PMS_P1;PMS_P2;Temp;Humidity;BMP_temperature;BMP_pressure;BME280_temperature;BME280_humidity;BME280_pressure;Samples;Min_cycle;Max_cycle;Signal;HPM_P1;HPM_P2
2024/01/05 00:01:13;;;;;;;10.20;4.90;;;8.50;99.90;;;;;;5031079;28;20537;-71
2024/01/05 00:03:38;;;;;;;7.87;4.50;;;8.50;99.90;;;;;;5016483;28;20445;-71
2024/01/05 00:06:04;;;;;;;8.07;5.43;;;8.40;99.90;;;;;;5018432;28;20174;-71
2024/01/05 00:08:30;;;;;;;5.77;4.20;;;8.30;99.90;;;;;;5036321;28;20585;-71
2024/01/05 00:10:55;;;;;;;10.50;5.10;;;8.30;99.90;;;;;;5033079;28;20306;-70
2024/01/05 00:13:21;;;;;;;7.70;3.97;;;8.30;99.90;;;;;;5016834;28;20187;-71
2024/01/05 00:15:47;;;;;;;7.00;4.20;;;8.30;99.90;;;;;;5019393;28;20643;-71
2024/01/05 00:18:13;;;;;;;7.50;3.77;;;8.30;99.90;;;;;;5035785;28;20419;-71
2024/01/05 00:20:38;;;;;;;9.57;4.10;;;8.30;99.90;;;;;;5035742;28;20167;-71
2024/01/05 00:23:04;;;;;;;9.30;4.50;;;8.30;99.90;;;;;;5016474;28;20172;-71
2024/01/05 00:25:30;;;;;;;8.07;4.80;;;8.30;99.90;;;;;;5016437;28;20171;-71
2024/01/05 00:27:56;;;;;;;8.47;4.73;;;8.30;99.90;;;;;;5016805;28;20501;-70
2024/01/05 00:30:21;;;;;;;5.77;4.10;;;8.20;99.90;;;;;;5016343;28;20589;-71
2024/01/05 00:32:47;;;;;;;10.00;4.37;;;8.20;99.90;;;;;;5034093;28;20668;-71
2024/01/05 00:35:12;;;;;;;5.27;4.17;;;8.20;99.90;;;;;;5035918;28;20631;-71
2024/01/05 00:37:38;;;;;;;5.20;4.00;;;8.20;99.90;;;;;;5035977;28;20185;-71
2024/01/05 00:40:06;;;;;;;8.93;4.63;;;8.10;99.90;;;;;;5035867;28;20175;-70
2024/01/05 00:42:31;;;;;;;12.40;4.50;;;8.10;99.90;;;;;;5019816;28;20206;-69
2024/01/05 00:44:57;;;;;;;6.20;3.93;;;8.00;99.90;;;;;;5016283;28;20436;-71
2024/01/05 00:47:22;;;;;;;5.20;3.60;;;8.10;99.90;;;;;;5027287;28;20178;-71
2024/01/05 00:49:48;;;;;;;7.07;3.73;;;8.00;99.90;;;;;;5035622;28;20183;-71
2024/01/05 00:52:14;;;;;;;7.50;3.83;;;7.90;99.90;;;;;;5022013;28;20201;-71
2024/01/05 00:54:40;;;;;;;7.30;2.93;;;7.90;99.90;;;;;;5025813;28;20199;-71
2024/01/05 00:57:05;;;;;;;4.93;2.33;;;7.90;99.90;;;;;;5026785;28;20181;-71
2024/01/05 00:59:31;;;;;;;4.07;2.83;;;7.80;99.90;;;;;;5015707;28;20422;-71
2024/01/05 01:01:57;;;;;;;6.03;2.57;;;7.80;99.90;;;;;;5026511;28;20173;-71
2024/01/05 01:04:23;;;;;;;4.70;2.40;;;7.90;99.90;;;;;;5034629;28;20208;-71
2024/01/05 01:06:49;;;;;;;3.73;2.20;;;7.80;99.90;;;;;;5034466;28;20611;-71
2024/01/05 01:09:15;;;;;;;9.03;3.47;;;7.80;99.90;;;;;;5025033;28;20430;-71
2024/01/05 01:11:40;;;;;;;6.60;2.43;;;8.00;99.90;;;;;;5016818;28;20498;-71
2024/01/05 01:14:06;;;;;;;3.60;2.37;;;8.00;99.90;;;;;;5034933;28;20431;-71
2024/01/05 01:16:32;;;;;;;5.17;2.60;;;8.20;99.90;;;;;;5029288;28;20230;-71
2024/01/05 01:18:57;;;;;;;6.27;2.80;;;8.30;99.90;;;;;;5015366;28;20167;-70
2024/01/05 01:21:23;;;;;;;4.17;2.40;;;8.40;99.90;;;;;;5020942;28;20179;-71
2024/01/05 01:23:51;;;;;;;5.60;2.50;;;8.40;99.90;;;;;;5035203;28;20418;-71
2024/01/05 01:26:16;;;;;;;4.73;2.10;;;8.40;99.90;;;;;;5034050;28;20184;-70
2024/01/05 01:28:42;;;;;;;5.80;2.63;;;8.50;99.90;;;;;;5016739;28;20414;-71
2024/01/05 01:31:08;;;;;;;6.53;3.03;;;8.40;99.90;;;;;;5013105;28;20183;-71
2024/01/05 01:33:33;;;;;;;2.97;2.00;;;8.30;99.90;;;;;;5014815;28;20190;-71
2024/01/05 01:35:59;;;;;;;5.53;2.40;;;8.50;99.90;;;;;;5014742;28;20171;-71
2024/01/05 01:38:24;;;;;;;4.60;2.80;;;8.60;99.90;;;;;;5015494;28;20172;-71
2024/01/05 01:40:52;;;;;;;6.33;2.33;;;8.70;99.90;;;;;;5015821;28;20179;-71
2024/01/05 01:43:27;;;;;;;5.27;2.23;;;8.70;99.90;;;;;;5034521;28;20196;-71
2024/01/05 01:45:56;;;;;;;2.83;1.70;;;8.80;99.90;;;;;;5034516;28;20387;-71
2024/01/05 01:48:23;;;;;;;3.43;2.03;;;8.80;99.90;;;;;;5034121;28;20827;-71
2024/01/05 01:50:49;;;;;;;5.30;2.40;;;8.90;99.90;;;;;;5033816;28;20410;-70
2024/01/05 01:53:18;;;;;;;3.83;2.30;;;8.80;99.90;;;;;;5014077;28;20493;-71
2024/01/05 01:55:46;;;;;;;4.40;2.00;;;8.70;99.90;;;;;;5014290;28;20826;-71
2024/01/05 01:58:15;;;;;;;4.33;2.67;;;8.80;99.90;;;;;;5029616;28;20424;-71
2024/01/05 02:00:41;;;;;;;6.47;2.57;;;9.00;99.90;;;;;;5033680;28;20410;-70
2024/01/05 02:03:08;;;;;;;7.70;2.40;;;9.00;99.90;;;;;;4996691;28;20994;-70
2024/01/05 02:05:34;;;;;;;5.20;2.43;;;9.00;99.90;;;;;;5016547;28;20451;-70
2024/01/05 02:07:59;;;;;;;4.43;2.63;;;9.00;99.90;;;;;;5014386;28;20465;-70
2024/01/05 02:10:25;;;;;;;5.73;2.47;;;9.10;99.90;;;;;;5015338;28;20891;-71
2024/01/05 02:12:51;;;;;;;7.10;2.50;;;9.00;99.90;;;;;;5030800;28;20584;-70
2024/01/05 02:15:17;;;;;;;9.03;3.20;;;9.10;99.90;;;;;;5033599;28;20209;-70
2024/01/05 02:17:43;;;;;;;5.53;2.30;;;8.90;99.90;;;;;;5032738;28;20171;-70
2024/01/05 02:20:09;;;;;;;3.73;2.23;;;8.60;99.90;;;;;;5017943;28;20422;-71
2024/01/05 02:22:37;;;;;;;3.70;2.17;;;8.60;99.90;;;;;;5028450;28;20679;-70
2024/01/05 02:25:04;;;;;;;5.23;3.40;;;8.60;99.90;;;;;;5033713;28;20189;-71
2024/01/05 02:27:29;;;;;;;10.37;3.37;;;8.50;99.90;;;;;;5033165;28;20413;-71
2024/01/05 02:29:55;;;;;;;4.10;2.13;;;8.50;99.90;;;;;;5015855;28;20418;-71
2024/01/05 02:32:21;;;;;;;6.83;3.23;;;8.60;99.90;;;;;;5021238;28;20202;-70
2024/01/05 02:34:47;;;;;;;5.93;2.87;;;8.60;99.90;;;;;;5013909;28;20214;-70
2024/01/05 02:37:12;;;;;;;9.50;2.80;;;8.30;99.90;;;;;;5020402;28;20171;-70
2024/01/05 02:39:38;;;;;;;4.57;2.80;;;8.50;99.90;;;;;;5033709;28;20251;-71
2024/01/05 02:42:04;;;;;;;4.50;2.80;;;8.50;99.90;;;;;;5023299;28;20167;-70
2024/01/05 02:44:30;;;;;;;4.67;2.60;;;8.50;99.90;;;;;;5013573;28;20215;-71
2024/01/05 02:46:56;;;;;;;6.73;3.30;;;8.50;99.90;;;;;;5017568;28;20230;-69
2024/01/05 02:49:21;;;;;;;4.90;2.40;;;8.60;99.90;;;;;;5033413;28;20551;-71
2024/01/05 02:51:47;;;;;;;5.33;2.80;;;8.70;99.90;;;;;;5025447;28;20310;-70
2024/01/05 02:54:13;;;;;;;4.40;2.47;;;8.50;99.90;;;;;;5013407;28;20192;-71
2024/01/05 02:56:39;;;;;;;3.83;2.17;;;8.40;99.90;;;;;;5014698;28;20165;-71
2024/01/05 02:59:05;;;;;;;6.27;2.60;;;8.50;99.90;;;;;;5033038;28;20411;-71
2024/01/05 03:01:31;;;;;;;8.63;3.20;;;8.30;99.90;;;;;;5027984;28;20176;-70
2024/01/05 03:03:57;;;;;;;5.20;2.57;;;8.40;99.90;;;;;;5032253;23;20438;-67
2024/01/05 03:06:23;;;;;;;4.83;1.87;;;8.50;99.90;;;;;;5052864;28;20217;-69
2024/01/05 03:08:49;;;;;;;4.37;2.37;;;8.40;99.90;;;;;;5052473;28;20412;-70
2024/01/05 03:11:15;;;;;;;4.40;2.10;;;8.40;99.90;;;;;;5052546;28;20392;-70
2024/01/05 03:13:41;;;;;;;4.13;2.03;;;8.40;99.90;;;;;;5052553;28;20471;-69
2024/01/05 03:16:07;;;;;;;6.30;2.70;;;8.50;99.90;;;;;;5052604;28;20545;-70
2024/01/05 03:18:32;;;;;;;3.63;1.77;;;8.40;99.90;;;;;;5036547;28;20501;-70
2024/01/05 03:20:58;;;;;;;5.40;2.53;;;8.40;99.90;;;;;;5033220;28;20180;-69
2024/01/05 03:23:23;;;;;;;4.47;2.00;;;8.30;99.90;;;;;;5053117;28;20539;-69
2024/01/05 03:25:50;;;;;;;6.53;1.93;;;8.30;99.90;;;;;;5052151;28;20199;-70
2024/01/05 03:28:16;;;;;;;3.93;1.53;;;8.50;99.90;;;;;;5053033;28;20214;-69
2024/01/05 03:30:42;;;;;;;5.33;1.83;;;8.50;99.90;;;;;;5056441;28;21063;-70
2024/01/05 03:33:07;;;;;;;5.47;1.70;;;8.70;99.90;;;;;;5056289;28;20965;-70
2024/01/05 03:35:33;;;;;;;5.80;2.07;;;8.70;99.90;;;;;;5056330;28;20273;-70
2024/01/05 03:37:58;;;;;;;3.03;1.97;;;8.60;99.90;;;;;;5055744;28;20178;-70
2024/01/05 03:40:24;;;;;;;4.03;2.07;;;8.70;99.90;;;;;;5056498;28;20193;-70
2024/01/05 03:42:49;;;;;;;3.20;1.70;;;8.70;99.90;;;;;;5056184;28;20200;-70
2024/01/05 03:45:15;;;;;;;5.90;1.90;;;8.80;99.90;;;;;;5056172;28;20190;-70
2024/01/05 03:47:40;;;;;;;5.47;2.10;;;8.70;99.90;;;;;;5055705;28;20223;-70
2024/01/05 03:50:06;;;;;;;2.67;1.63;;;8.80;99.90;;;;;;5056143;28;20180;-69
2024/01/05 03:52:32;;;;;;;4.60;1.50;;;8.90;99.90;;;;;;5055839;28;20206;-70
2024/01/05 03:54:58;;;;;;;6.37;1.60;;;9.00;99.90;;;;;;5055898;28;20431;-70
2024/01/05 03:57:23;;;;;;;4.87;1.90;;;8.90;99.90;;;;;;5055293;28;20534;-70
2024/01/05 03:59:50;;;;;;;2.53;1.30;;;8.90;99.90;;;;;;5056243;28;20169;-70
2024/01/05 04:02:16;;;;;;;4.03;2.00;;;8.90;99.90;;;;;;5055819;28;20188;-70
2024/01/05 04:04:42;;;;;;;7.00;1.60;;;9.00;99.90;;;;;;5055513;28;20448;-69
2024/01/05 04:07:08;;;;;;;2.00;1.60;;;8.90;99.90;;;;;;5054922;28;20540;-69
2024/01/05 04:09:33;;;;;;;3.10;1.67;;;8.90;99.90;;;;;;5056014;28;20631;-70
2024/01/05 04:11:59;;;;;;;4.17;1.30;;;9.00;99.90;;;;;;5055587;28;20195;-70
2024/01/05 04:14:25;;;;;;;5.97;1.40;;;8.90;99.90;;;;;;5055582;28;20201;-70
2024/01/05 04:16:50;;;;;;;5.40;1.53;;;8.80;99.90;;;;;;5055602;28;20168;-70
2024/01/05 04:19:16;;;;;;;2.77;1.13;;;9.00;99.90;;;;;;5054870;28;20179;-70
2024/01/05 04:21:42;;;;;;;3.37;1.60;;;9.00;99.90;;;;;;5055683;28;20171;-70
2024/01/05 04:24:08;;;;;;;2.10;1.70;;;9.00;99.90;;;;;;5054571;28;20206;-69
2024/01/05 04:26:34;;;;;;;2.30;1.07;;;9.00;99.90;;;;;;5037824;28;20927;-70
2024/01/05 04:29:00;;;;;;;5.43;1.57;;;9.00;99.90;;;;;;5038555;28;20419;-69
2024/01/05 04:31:25;;;;;;;2.33;1.20;;;9.00;99.90;;;;;;5020813;28;20200;-69
2024/01/05 04:33:51;;;;;;;2.30;1.03;;;9.00;99.90;;;;;;5055251;28;20440;-69
2024/01/05 04:36:17;;;;;;;4.00;1.50;;;9.00;99.90;;;;;;5055264;28;20506;-69
2024/01/05 04:38:43;;;;;;;3.00;1.43;;;9.00;99.90;;;;;;5054480;28;20172;-69
2024/01/05 04:41:10;;;;;;;5.43;1.70;;;9.00;99.90;;;;;;5055369;28;20395;-69
2024/01/05 04:43:36;;;;;;;2.80;1.47;;;9.10;99.90;;;;;;5054992;28;20411;-69
2024/01/05 04:46:01;;;;;;;3.50;1.20;;;9.00;99.90;;;;;;5037401;28;20415;-69
2024/01/05 04:48:27;;;;;;;2.63;1.60;;;9.10;99.90;;;;;;5054384;28;20420;-69
2024/01/05 04:50:53;;;;;;;2.20;1.40;;;9.00;99.90;;;;;;5054517;28;20182;-70
2024/01/05 04:53:18;;;;;;;2.67;1.87;;;9.00;99.90;;;;;;5037078;28;20232;-69
2024/01/05 04:55:44;;;;;;;2.30;1.13;;;9.00;99.90;;;;;;5054877;28;20187;-70
2024/01/05 04:58:09;;;;;;;2.83;1.53;;;9.10;99.90;;;;;;5054166;28;20603;-69
2024/01/05 05:00:35;;;;;;;2.00;1.10;;;9.00;99.90;;;;;;5055349;28;20586;-69
2024/01/05 05:03:00;;;;;;;2.40;1.53;;;8.90;99.90;;;;;;5054780;28;20210;-69
2024/01/05 05:05:26;;;;;;;3.33;1.10;;;9.00;99.90;;;;;;5054577;28;20583;-69
2024/01/05 05:07:54;;;;;;;1.93;1.30;;;9.10;99.90;;;;;;5054010;28;20168;-69
2024/01/05 05:10:22;;;;;;;5.13;1.37;;;9.20;99.90;;;;;;5054795;28;20179;-69
2024/01/05 05:12:48;;;;;;;2.53;1.20;;;9.20;99.90;;;;;;5054520;28;20498;-69
2024/01/05 05:15:13;;;;;;;2.33;1.13;;;9.30;99.90;;;;;;5054683;28;20506;-69
2024/01/05 05:17:39;;;;;;;2.80;1.50;;;9.40;99.90;;;;;;5053918;28;20204;-69
2024/01/05 05:20:05;;;;;;;5.07;1.23;;;9.30;99.90;;;;;;5054755;28;20172;-69
2024/01/05 05:22:30;;;;;;;2.83;1.13;;;9.10;99.90;;;;;;5054379;28;20181;-69
2024/01/05 05:24:57;;;;;;;5.20;1.43;;;9.20;99.90;;;;;;5054185;28;20454;-69
2024/01/05 05:27:22;;;;;;;2.90;1.40;;;9.20;99.90;;;;;;5053330;28;20257;-69
2024/01/05 05:29:48;;;;;;;2.20;1.10;;;9.20;99.90;;;;;;5043693;28;20992;-69
2024/01/05 05:32:14;;;;;;;3.30;1.40;;;9.20;99.90;;;;;;5043208;28;20230;-69
2024/01/05 05:34:40;;;;;;;3.23;1.20;;;9.20;99.90;;;;;;5054117;28;20187;-69
2024/01/05 05:37:06;;;;;;;4.47;1.93;;;9.10;99.90;;;;;;5036153;28;20171;-69
2024/01/05 05:39:31;;;;;;;5.13;1.40;;;9.10;99.90;;;;;;5053475;28;20423;-70
2024/01/05 05:41:57;;;;;;;6.50;2.93;;;9.00;99.90;;;;;;5053980;28;20183;-70
2024/01/05 05:44:22;;;;;;;4.87;2.20;;;9.10;99.90;;;;;;5053842;28;20202;-70
2024/01/05 05:46:48;;;;;;;2.47;1.40;;;9.00;99.90;;;;;;5054423;28;20253;-70
2024/01/05 05:49:13;;;;;;;2.23;1.50;;;9.00;99.90;;;;;;5052876;28;20186;-69
2024/01/05 05:51:39;;;;;;;1.80;1.60;;;9.00;99.90;;;;;;5053374;28;20564;-70
2024/01/05 05:54:05;;;;;;;5.60;4.83;;;9.10;99.90;;;;;;5053625;28;20198;-70
2024/01/05 05:56:30;;;;;;;1.93;1.27;;;9.20;99.90;;;;;;5053965;28;20271;-70
2024/01/05 05:58:56;;;;;;;3.60;1.33;;;9.10;99.90;;;;;;5035161;28;20187;-70
2024/01/05 06:01:23;;;;;;;2.50;1.33;;;9.20;99.90;;;;;;5053271;28;20179;-68
2024/01/05 06:03:49;;;;;;;3.10;1.30;;;9.30;99.90;;;;;;5053288;28;20188;-69
2024/01/05 06:06:20;;;;;;;2.23;1.30;;;9.10;99.90;;;;;;5053805;28;20771;-69
2024/01/05 06:08:46;;;;;;;1.47;1.00;;;9.20;99.90;;;;;;5052739;28;20716;-69
2024/01/05 06:11:18;;;;;;;3.20;1.50;;;9.40;99.90;;;;;;5053039;28;20500;-69
2024/01/05 06:13:47;;;;;;;2.20;1.13;;;9.40;99.90;;;;;;5033846;28;20825;-69
2024/01/05 06:16:13;;;;;;;3.03;2.70;;;9.50;99.90;;;;;;5033436;28;20409;-68
2024/01/05 06:18:39;;;;;;;3.33;1.70;;;9.30;99.90;;;;;;5044268;28;20424;-69
2024/01/05 06:21:05;;;;;;;2.20;1.23;;;9.30;99.90;;;;;;5053293;28;20501;-70
2024/01/05 06:23:32;;;;;;;2.50;1.27;;;9.30;99.90;;;;;;5053087;28;20947;-68
2024/01/05 06:25:58;;;;;;;4.90;1.30;;;9.10;99.90;;;;;;5053157;28;20254;-68
2024/01/05 06:28:23;;;;;;;3.17;1.30;;;9.00;99.90;;;;;;5052801;28;20471;-69
2024/01/05 06:30:49;;;;;;;2.40;1.27;;;9.00;99.90;;;;;;5053142;28;20188;-69
2024/01/05 06:33:15;;;;;;;4.60;2.20;;;8.90;99.90;;;;;;5034465;28;20600;-69
2024/01/05 06:35:41;;;;;;;3.70;1.93;;;9.00;99.90;;;;;;5052942;28;20190;-69
2024/01/05 06:38:07;;;;;;;4.60;1.80;;;8.90;99.90;;;;;;5052428;28;20411;-69
2024/01/05 06:40:32;;;;;;;2.10;1.47;;;8.90;99.90;;;;;;5052661;28;20170;-69
2024/01/05 06:42:58;;;;;;;4.17;1.20;;;8.90;99.90;;;;;;5052113;28;20522;-69
2024/01/05 06:45:24;;;;;;;3.63;1.80;;;8.90;99.90;;;;;;5052974;28;20209;-69
2024/01/05 06:47:50;;;;;;;5.20;1.67;;;9.00;99.90;;;;;;5049555;28;20229;-69
2024/01/05 06:50:16;;;;;;;3.30;1.83;;;9.00;99.90;;;;;;5033232;28;20492;-69
2024/01/05 06:52:41;;;;;;;3.00;2.27;;;8.90;99.90;;;;;;5034772;28;20188;-68
2024/01/05 06:55:07;;;;;;;23.93;14.00;;;8.80;99.90;;;;;;5059155;28;20727;-68
2024/01/05 06:57:35;;;;;;;5.80;2.63;;;8.70;99.90;;;;;;5032715;28;20178;-68
2024/01/05 07:00:03;;;;;;;3.00;1.77;;;8.70;99.90;;;;;;5015060;28;20413;-69
2024/01/05 07:02:29;;;;;;;3.93;2.00;;;8.70;99.90;;;;;;5015322;28;20869;-68
2024/01/05 07:04:54;;;;;;;2.53;1.70;;;8.60;99.90;;;;;;5055762;28;20536;-68
2024/01/05 07:07:20;;;;;;;2.97;1.70;;;8.60;99.90;;;;;;5056819;28;20637;-69
2024/01/05 07:09:45;;;;;;;3.40;2.40;;;8.70;99.90;;;;;;5056798;28;20217;-69
2024/01/05 07:12:11;;;;;;;4.47;1.90;;;8.60;99.90;;;;;;5038709;28;20252;-69
2024/01/05 07:14:36;;;;;;;4.43;1.97;;;8.70;99.90;;;;;;5056030;28;20301;-69
2024/01/05 07:17:02;;;;;;;6.77;1.70;;;8.70;99.90;;;;;;5056732;28;20548;-69
2024/01/05 07:19:28;;;;;;;4.00;1.80;;;8.70;99.90;;;;;;5056699;28;20727;-69
2024/01/05 07:21:53;;;;;;;4.23;1.70;;;8.70;99.90;;;;;;5056856;28;20638;-69
2024/01/05 07:24:19;;;;;;;2.50;1.27;;;8.80;99.90;;;;;;5055857;28;20673;-69
2024/01/05 07:26:45;;;;;;;5.60;1.93;;;8.80;99.90;;;;;;5056869;28;20175;-67
2024/01/05 07:29:10;;;;;;;3.10;1.33;;;8.80;99.90;;;;;;5056595;28;20180;-69
2024/01/05 07:31:36;;;;;;;2.23;1.63;;;8.80;99.90;;;;;;5056482;28;20244;-69
2024/01/05 07:34:02;;;;;;;3.23;1.83;;;8.70;99.90;;;;;;5055700;28;20194;-69
2024/01/05 07:36:28;;;;;;;4.60;1.70;;;8.60;99.90;;;;;;5056282;28;20174;-69
2024/01/05 07:38:58;;;;;;;3.30;1.47;;;8.70;99.90;;;;;;5055799;28;20592;-71
2024/01/05 07:41:24;;;;;;;2.90;1.60;;;8.60;99.90;;;;;;5056528;28;20865;-70
2024/01/05 07:43:50;;;;;;;2.70;1.80;;;8.70;99.90;;;;;;5055782;28;20780;-69
2024/01/05 07:46:16;;;;;;;5.07;2.10;;;8.70;99.90;;;;;;5056115;28;20407;-69
2024/01/05 07:48:42;;;;;;;3.17;1.53;;;8.70;99.90;;;;;;5052399;28;20176;-69
2024/01/05 07:51:08;;;;;;;3.37;2.00;;;8.80;99.90;;;;;;5036182;28;20174;-70
2024/01/05 07:53:34;;;;;;;4.43;1.77;;;8.70;99.90;;;;;;5043960;28;20255;-69
2024/01/05 07:56:00;;;;;;;2.93;1.70;;;8.80;99.90;;;;;;5037249;28;20416;-70
2024/01/05 07:58:26;;;;;;;6.10;2.70;;;8.90;99.90;;;;;;5054524;28;20192;-70
2024/01/05 08:00:51;;;;;;;3.40;1.40;;;8.90;99.90;;;;;;5055449;28;20401;-70
2024/01/05 08:03:17;;;;;;;3.63;1.70;;;9.00;99.90;;;;;;5055736;28;20565;-70
2024/01/05 08:05:43;;;;;;;3.37;2.20;;;9.20;99.90;;;;;;5055562;28;20589;-71
2024/01/05 08:08:08;;;;;;;3.20;1.63;;;9.20;99.90;;;;;;5056214;28;20168;-70
2024/01/05 08:10:35;;;;;;;3.07;1.50;;;9.20;99.90;;;;;;5019097;28;20951;-70
2024/01/05 08:13:01;;;;;;;3.40;1.87;;;9.20;99.90;;;;;;5039032;28;20239;-69
2024/01/05 08:15:28;;;;;;;4.43;1.73;;;9.20;99.90;;;;;;5048314;28;20994;-69
2024/01/05 08:17:54;;;;;;;2.20;1.43;;;9.20;99.90;;;;;;5035643;28;20931;-69
2024/01/05 08:20:20;;;;;;;3.47;2.50;;;9.30;99.90;;;;;;5035615;28;20413;-69
2024/01/05 08:22:45;;;;;;;2.23;1.50;;;9.40;99.90;;;;;;5036875;28;20206;-69
2024/01/05 08:25:13;;;;;;;2.80;1.83;;;9.40;99.90;;;;;;5055240;28;20218;-69
2024/01/05 08:27:39;;;;;;;2.80;1.73;;;9.40;99.90;;;;;;5035701;28;20177;-69
2024/01/05 08:30:07;;;;;;;2.90;1.80;;;9.50;99.90;;;;;;5035420;28;20414;-70
2024/01/05 08:32:33;;;;;;;6.60;1.93;;;9.60;99.90;;;;;;5035442;28;20195;-70
2024/01/05 08:34:59;;;;;;;2.80;1.87;;;9.60;99.90;;;;;;5054506;28;20433;-69
2024/01/05 08:37:25;;;;;;;3.77;2.57;;;9.40;99.90;;;;;;5036882;28;20985;-69
2024/01/05 08:39:50;;;;;;;5.83;2.10;;;9.60;99.90;;;;;;5041320;28;20176;-69
2024/01/05 08:42:16;;;;;;;5.23;2.10;;;9.70;99.90;;;;;;5055526;28;20440;-70
2024/01/05 08:44:42;;;;;;;2.20;1.43;;;9.70;99.90;;;;;;5054606;28;20202;-70
2024/01/05 08:47:07;;;;;;;4.07;1.77;;;9.80;99.90;;;;;;5055518;28;20182;-70
2024/01/05 08:49:33;;;;;;;3.87;1.57;;;9.80;99.90;;;;;;5051483;28;20630;-68
2024/01/05 08:51:59;;;;;;;4.43;2.10;;;9.80;99.90;;;;;;5036992;28;20199;-68
2024/01/05 08:54:25;;;;;;;4.60;1.60;;;9.80;99.90;;;;;;5043449;28;20434;-69
2024/01/05 08:56:50;;;;;;;2.77;1.60;;;9.70;99.90;;;;;;5040103;28;20180;-68
2024/01/05 08:59:16;;;;;;;3.23;1.77;;;9.80;99.90;;;;;;5042229;28;20190;-69
2024/01/05 09:01:41;;;;;;;3.50;1.63;;;9.80;99.90;;;;;;5048495;28;20181;-69
2024/01/05 09:04:10;;;;;;;3.20;1.83;;;9.70;99.90;;;;;;5076616;23;20217;-68
2024/01/05 09:06:38;;;;;;;1.80;1.50;;;9.80;99.90;;;;;;5049601;28;20184;-72
2024/01/05 09:09:04;;;;;;;3.80;1.60;;;9.80;99.90;;;;;;5071571;28;20406;-71
2024/01/05 09:11:29;;;;;;;3.90;1.77;;;9.60;99.90;;;;;;5061881;28;20411;-71
2024/01/05 09:13:55;;;;;;;4.13;1.57;;;9.60;99.90;;;;;;5051673;28;20405;-70
2024/01/05 09:16:21;;;;;;;3.33;1.27;;;9.70;99.90;;;;;;5062758;28;20280;-71
2024/01/05 09:18:46;;;;;;;1.70;1.40;;;9.60;99.90;;;;;;5056745;28;20175;-71
2024/01/05 09:21:13;;;;;;;2.53;1.40;;;9.70;99.90;;;;;;5057511;28;20166;-71
2024/01/05 09:23:41;;;;;;;7.90;2.40;;;9.60;99.90;;;;;;5074833;28;20509;-71
2024/01/05 09:26:16;;;;;;;3.90;1.33;;;9.40;99.90;;;;;;5059878;28;20426;-70
2024/01/05 09:28:42;;;;;;;3.80;1.93;;;9.30;99.90;;;;;;5064524;28;20411;-70
2024/01/05 09:31:08;;;;;;;3.27;1.70;;;9.20;99.90;;;;;;5074748;28;20423;-70
2024/01/05 09:33:33;;;;;;;2.50;1.77;;;9.30;99.90;;;;;;5073861;28;20988;-71
2024/01/05 09:36:00;;;;;;;4.07;1.83;;;9.30;99.90;;;;;;5061589;28;20434;-70
2024/01/05 09:38:25;;;;;;;4.60;2.10;;;9.50;99.90;;;;;;5054511;28;20169;-70
2024/01/05 09:40:52;;;;;;;4.70;2.37;;;9.40;99.90;;;;;;5055602;28;20408;-70
2024/01/05 09:43:23;;;;;;;4.10;2.10;;;9.50;99.90;;;;;;5058688;28;20582;-71
2024/01/05 09:45:53;;;;;;;5.10;1.80;;;9.40;99.90;;;;;;5073516;28;20431;-70
2024/01/05 09:48:19;;;;;;;4.93;2.17;;;9.60;99.90;;;;;;5072281;28;20946;-71
2024/01/05 09:50:57;;;;;;;3.70;1.40;;;9.60;99.90;;;;;;5073688;28;20828;-71
2024/01/05 09:53:23;;;;;;;3.10;1.80;;;9.70;99.90;;;;;;5073658;28;20530;-70
2024/01/05 09:55:50;;;;;;;5.13;2.30;;;9.90;99.90;;;;;;5060847;28;20434;-69
2024/01/05 09:58:16;;;;;;;4.10;1.77;;;10.00;99.90;;;;;;5054082;28;20212;-71
2024/01/05 10:00:50;;;;;;;2.87;1.57;;;10.00;99.90;;;;;;5059854;28;20410;-70
2024/01/05 10:03:26;;;;;;;3.00;1.53;;;10.10;99.90;;;;;;5068419;28;20416;-71
2024/01/05 10:05:56;;;;;;;2.17;1.73;;;10.20;99.90;;;;;;5072570;28;20479;-70
2024/01/05 10:08:22;;;;;;;3.37;2.17;;;10.40;99.90;;;;;;5051918;28;20431;-71
2024/01/05 10:10:52;;;;;;;1.83;1.53;;;10.50;99.90;;;;;;5070344;28;20417;-70
2024/01/05 10:13:18;;;;;;;3.33;1.73;;;10.70;99.90;;;;;;5071827;28;20438;-70
2024/01/05 10:15:54;;;;;;;3.23;1.93;;;10.60;99.90;;;;;;5056569;28;20440;-71
2024/01/05 10:18:23;;;;;;;3.97;1.87;;;10.80;99.90;;;;;;5053975;28;20208;-71
2024/01/05 10:20:49;;;;;;;2.30;1.70;;;10.90;99.90;;;;;;5054697;28;20415;-72
2024/01/05 10:23:18;;;;;;;2.53;1.70;;;10.90;99.90;;;;;;5057966;28;20498;-72
2024/01/05 10:25:46;;;;;;;1.90;1.60;;;11.00;99.90;;;;;;5073036;28;20509;-71
2024/01/05 10:28:38;;;;;;;2.70;1.70;;;10.90;99.90;;;;;;5073379;28;20405;-72
2024/01/05 10:31:14;;;;;;;5.30;2.40;;;11.00;99.90;;;;;;5070391;28;20987;-72
2024/01/05 10:33:54;;;;;;;7.70;2.70;;;11.20;99.90;;;;;;5071916;28;20453;-72
2024/01/05 10:36:20;;;;;;;5.10;1.83;;;11.10;99.90;;;;;;5073013;28;20431;-70
2024/01/05 10:38:47;;;;;;;4.97;1.70;;;11.10;99.90;;;;;;5072341;28;20419;-71
2024/01/05 10:41:15;;;;;;;5.30;2.73;;;11.20;99.90;;;;;;5073625;28;20396;-71
2024/01/05 10:43:41;;;;;;;5.97;2.20;;;11.30;99.90;;;;;;5072482;28;20510;-72
2024/01/05 10:46:10;;;;;;;6.83;2.20;;;11.50;99.90;;;;;;5058158;28;20438;-70
2024/01/05 10:48:36;;;;;;;2.93;1.80;;;11.50;99.90;;;;;;5051740;28;20409;-71
2024/01/05 10:51:03;;;;;;;3.73;1.90;;;11.70;99.90;;;;;;5067831;28;20415;-70
2024/01/05 10:53:29;;;;;;;3.07;1.97;;;11.80;99.90;;;;;;5071328;28;20471;-71
2024/01/05 10:55:58;;;;;;;3.87;1.70;;;11.70;99.90;;;;;;5068835;28;20466;-71
2024/01/05 10:58:24;;;;;;;4.10;1.93;;;11.50;99.90;;;;;;5072265;28;20420;-71
2024/01/05 11:00:52;;;;;;;7.70;2.43;;;11.70;99.90;;;;;;5072399;28;20486;-71
2024/01/05 11:03:19;;;;;;;3.87;2.13;;;11.60;99.90;;;;;;5054164;28;20171;-71
2024/01/05 11:05:46;;;;;;;3.37;2.10;;;11.70;99.90;;;;;;5070976;28;20593;-71
2024/01/05 11:08:52;;;;;;;5.90;2.03;;;11.30;99.90;;;;;;5072870;28;20801;-71
2024/01/05 11:11:34;;;;;;;2.93;1.80;;;11.20;99.90;;;;;;5011480;28;20420;-71
2024/01/05 11:14:21;;;;;;;3.70;1.83;;;11.40;99.90;;;;;;5040900;28;20422;-71
2024/01/05 11:17:32;;;;;;;3.47;1.83;;;11.40;99.90;;;;;;5071330;28;20404;-71
2024/01/05 11:20:39;;;;;;;6.67;2.70;;;11.30;99.90;;;;;;5062494;28;20405;-70
2024/01/05 11:23:08;;;;;;;4.53;1.93;;;11.70;99.90;;;;;;5061962;28;20433;-71
2024/01/05 11:25:34;;;;;;;4.33;1.90;;;11.90;99.90;;;;;;5072814;28;20419;-71
2024/01/05 11:27:59;;;;;;;6.83;2.07;;;12.00;99.90;;;;;;5053983;28;20417;-71
2024/01/05 11:30:43;;;;;;;4.63;2.03;;;11.70;99.90;;;;;;5053037;28;20164;-71
2024/01/05 11:33:48;;;;;;;3.87;1.77;;;11.80;99.90;;;;;;5054403;28;20262;-71
2024/01/05 11:36:49;;;;;;;2.73;2.30;;;11.90;99.90;;;;;;5053923;28;20461;-71
2024/01/05 11:39:40;;;;;;;3.40;2.30;;;12.00;99.90;;;;;;5072435;28;20406;-70
2024/01/05 11:42:06;;;;;;;3.07;2.20;;;12.20;99.90;;;;;;5054801;28;20411;-70
2024/01/05 11:44:35;;;;;;;4.30;2.13;;;12.30;99.90;;;;;;5065289;28;20428;-70
2024/01/05 11:47:01;;;;;;;3.50;2.20;;;12.30;99.90;;;;;;5052464;28;20410;-71
2024/01/05 11:49:41;;;;;;;4.93;2.40;;;12.30;99.90;;;;;;5053924;28;20456;-70
2024/01/05 11:52:07;;;;;;;4.30;2.00;;;12.40;99.90;;;;;;5056309;28;20243;-71
2024/01/05 11:54:33;;;;;;;5.40;2.13;;;11.90;99.90;;;;;;5068375;28;20420;-71
2024/01/05 11:57:00;;;;;;;3.43;2.30;;;11.90;99.90;;;;;;5075416;28;20415;-71
2024/01/05 11:59:26;;;;;;;5.73;2.30;;;11.90;99.90;;;;;;5075373;28;20429;-70
2024/01/05 12:01:53;;;;;;;8.83;2.53;;;11.90;99.90;;;;;;5074992;28;20413;-70
2024/01/05 12:04:19;;;;;;;3.70;2.00;;;12.00;99.90;;;;;;5071131;28;20715;-69
2024/01/05 12:06:54;;;;;;;4.20;2.40;;;12.20;99.90;;;;;;5055975;28;20405;-70
2024/01/05 12:09:20;;;;;;;4.43;2.60;;;12.10;99.90;;;;;;5055976;28;20408;-69
2024/01/05 12:11:47;;;;;;;5.77;2.10;;;12.10;99.90;;;;;;5056648;28;20860;-70
2024/01/05 12:14:33;;;;;;;6.87;2.57;;;11.90;99.90;;;;;;5063149;28;20399;-71
2024/01/05 12:17:14;;;;;;;8.03;2.60;;;12.10;99.90;;;;;;5075612;28;20418;-70
2024/01/05 12:19:39;;;;;;;4.90;2.47;;;12.10;99.90;;;;;;5075938;28;20434;-71
2024/01/05 12:22:07;;;;;;;3.47;2.53;;;12.10;99.90;;;;;;5075695;28;20405;-70
2024/01/05 12:24:33;;;;;;;4.83;2.30;;;12.20;99.90;;;;;;5075061;28;20194;-70
2024/01/05 12:26:59;;;;;;;3.90;2.17;;;11.90;99.90;;;;;;5075602;28;20767;-70
2024/01/05 12:29:26;;;;;;;4.13;2.53;;;11.80;99.90;;;;;;5075492;28;20401;-70
2024/01/05 12:31:52;;;;;;;7.50;2.67;;;11.80;99.90;;;;;;5075739;28;20453;-71
2024/01/05 12:34:18;;;;;;;4.13;2.60;;;11.90;99.90;;;;;;5075129;28;20408;-71
2024/01/05 12:36:44;;;;;;;3.73;1.97;;;12.10;99.90;;;;;;5075698;28;20411;-71
2024/01/05 12:39:10;;;;;;;5.23;2.37;;;11.90;99.90;;;;;;5075825;28;20422;-72
2024/01/05 12:41:39;;;;;;;6.03;2.67;;;11.80;99.90;;;;;;5076114;28;20511;-72
2024/01/05 12:44:07;;;;;;;3.83;2.43;;;11.80;99.90;;;;;;5074516;28;20404;-71
2024/01/05 12:46:41;;;;;;;5.13;2.50;;;11.80;99.90;;;;;;5075621;28;20402;-71
2024/01/05 12:49:21;;;;;;;4.93;2.80;;;11.60;99.90;;;;;;5075949;28;20427;-70
2024/01/05 12:51:50;;;;;;;5.33;3.13;;;11.40;99.90;;;;;;5075835;28;21031;-71
2024/01/05 12:54:17;;;;;;;4.23;2.43;;;11.50;99.90;;;;;;5074873;28;20415;-71
2024/01/05 12:56:48;;;;;;;4.73;2.77;;;11.80;99.90;;;;;;5075764;28;20408;-71